Time;durP1;ratioP1;P1;durP2;ratioP2;P2;SDS_P1;SDS_P2;PMS_P1;PMS_P2;Temp;Humidity;BMP_temperature;BMP_pressure;BME280_temperature;BME280_humidity;BME280_pressure;Samples;Min_cycle;Max_cycle;Signal;HPM_P1;HPM_P2
2023/10/18 00:01:00;;;;;;;20.52;11.38;;;6.90;99.90;;;;;;5045669;28;20033;-68
2023/10/18 00:03:31;;;;;;;21.25;12.02;;;6.90;99.90;;;;;;5051215;28;20398;-67
2023/10/18 00:06:11;;;;;;;21.98;11.85;;;6.90;99.90;;;;;;5039140;28;20033;-67
2023/10/18 00:08:40;;;;;;;23.02;11.70;;;6.90;99.90;;;;;;5018973;28;20509;-68
2023/10/18 00:11:06;;;;;;;22.00;12.23;;;6.90;99.90;;;;;;5049020;28;20063;-68
2023/10/18 00:13:33;;;;;;;23.67;12.55;;;6.90;99.90;;;;;;5053671;28;20073;-68
2023/10/18 00:16:00;;;;;;;22.70;12.75;;;7.00;99.90;;;;;;5052005;28;20124;-66
2023/10/18 00:18:26;;;;;;;22.48;12.38;;;6.90;99.90;;;;;;5033044;28;20255;-66
2023/10/18 00:21:06;;;;;;;20.48;12.02;;;6.90;99.90;;;;;;5041271;28;20033;-66
2023/10/18 00:23:32;;;;;;;22.15;13.30;;;6.80;99.90;;;;;;5037037;28;20103;-67
2023/10/18 00:26:03;;;;;;;24.10;13.63;;;6.80;99.90;;;;;;5038307;28;20075;-66
2023/10/18 00:28:29;;;;;;;22.33;12.98;;;6.80;99.90;;;;;;5048813;28;20039;-67
2023/10/18 00:30:54;;;;;;;23.27;12.98;;;6.80;99.90;;;;;;5049256;28;20099;-66
2023/10/18 00:33:20;;;;;;;27.95;13.75;;;6.90;99.90;;;;;;5046441;28;20382;-66
2023/10/18 00:35:52;;;;;;;24.90;13.18;;;6.80;99.90;;;;;;5039599;28;20495;-66
2023/10/18 00:38:18;;;;;;;;;;;6.80;99.90;;;;;;5048688;28;20461;-66
2023/10/18 00:40:51;;;;;;;23.25;13.05;;;6.80;99.90;;;;;;5045402;28;20007;-66
2023/10/18 00:43:20;;;;;;;22.70;13.88;;;6.80;99.90;;;;;;5045686;28;20037;-66
2023/10/18 00:45:47;;;;;;;25.67;13.93;;;6.80;99.90;;;;;;5042004;28;20440;-65
2023/10/18 00:48:14;;;;;;;27.08;14.52;;;6.80;99.90;;;;;;5049597;28;20406;-66
2023/10/18 00:50:45;;;;;;;25.05;14.23;;;6.80;99.90;;;;;;5048111;28;20143;-66
2023/10/18 00:53:19;;;;;;;24.30;14.48;;;6.80;99.90;;;;;;5041808;28;20401;-66
2023/10/18 00:55:48;;;;;;;26.95;14.43;;;6.80;99.90;;;;;;5032478;28;20189;-65
2023/10/18 00:58:15;;;;;;;26.67;15.05;;;6.80;99.90;;;;;;5047396;28;20048;-65
2023/10/18 01:00:41;;;;;;;26.85;15.23;;;6.80;99.90;;;;;;5048402;28;20037;-65
2023/10/18 01:03:15;;;;;;;28.48;14.43;;;6.80;99.90;;;;;;5049000;28;20044;-65
2023/10/18 01:06:04;;;;;;;28.20;15.65;;;6.80;99.90;;;;;;5034885;28;20041;-65
2023/10/18 01:08:31;;;;;;;29.63;16.65;;;6.80;99.90;;;;;;5045974;28;20041;-66
2023/10/18 01:13:42;;;;;;;30.27;15.63;;;6.80;99.90;;;;;;5003393;28;20058;-66
2023/10/18 01:16:20;;;;;;;30.08;16.02;;;6.80;99.90;;;;;;4975416;28;20046;-64
2023/10/18 01:18:47;;;;;;;29.02;15.88;;;6.70;99.90;;;;;;4993367;28;20042;-65
2023/10/18 01:21:22;;;;;;;28.35;15.82;;;6.80;99.90;;;;;;4975512;28;20049;-66
2023/10/18 01:23:51;;;;;;;29.15;16.15;;;6.70;99.90;;;;;;4995958;28;20084;-65
2023/10/18 01:26:24;;;;;;;29.67;15.85;;;6.70;99.90;;;;;;4993672;28;20031;-64
2023/10/18 01:28:51;;;;;;;26.92;16.30;;;6.70;99.90;;;;;;4986440;28;20530;-64
2023/10/18 01:31:17;;;;;;;31.83;17.70;;;6.70;99.90;;;;;;4979137;28;20057;-64
2023/10/18 01:33:45;;;;;;;28.85;16.80;;;6.70;99.90;;;;;;4987721;28;20038;-64
2023/10/18 01:36:13;;;;;;;30.30;17.45;;;6.70;99.90;;;;;;4965167;28;20378;-64
2023/10/18 01:38:44;;;;;;;34.20;18.63;;;6.70;99.90;;;;;;4986150;28;20042;-65
2023/10/18 01:41:16;;;;;;;28.55;17.27;;;6.70;99.90;;;;;;4990865;28;20042;-65
2023/10/18 01:43:43;;;;;;;31.20;18.08;;;6.70;99.90;;;;;;4995720;28;20386;-65
2023/10/18 01:46:13;;;;;;;32.45;17.80;;;6.70;99.90;;;;;;4974496;28;20038;-64
2023/10/18 01:48:39;;;;;;;37.13;18.10;;;6.70;99.90;;;;;;4993507;28;20049;-64
2023/10/18 01:51:09;;;;;;;33.30;18.90;;;6.70;99.90;;;;;;4984614;28;20425;-65
2023/10/18 01:53:38;;;;;;;33.42;18.42;;;6.70;99.90;;;;;;5005291;28;20053;-63
2023/10/18 01:56:04;;;;;;;34.20;18.58;;;6.70;99.90;;;;;;4981149;28;20072;-65
2023/10/18 01:58:30;;;;;;;37.20;19.48;;;6.70;99.90;;;;;;5000805;28;20096;-64
2023/10/18 02:00:56;;;;;;;34.38;18.85;;;6.70;99.90;;;;;;4994669;28;20055;-65
2023/10/18 02:03:23;;;;;;;31.88;16.90;;;6.70;99.90;;;;;;4973875;28;20130;-65
2023/10/18 02:05:49;;;;;;;33.35;19.17;;;6.70;99.90;;;;;;4994266;28;20377;-65
2023/10/18 02:08:15;;;;;;;32.83;18.55;;;6.70;99.90;;;;;;4989086;28;20420;-65
2023/10/18 02:10:42;;;;;;;35.30;18.73;;;6.70;99.90;;;;;;4991757;28;20401;-65
2023/10/18 02:13:13;;;;;;;37.30;19.30;;;6.70;99.90;;;;;;4999405;28;20053;-64
2023/10/18 02:15:42;;;;;;;34.97;18.52;;;6.70;99.90;;;;;;4973630;28;20038;-64
2023/10/18 02:18:09;;;;;;;36.33;20.50;;;6.70;99.90;;;;;;4994458;28;20046;-65
2023/10/18 02:20:42;;;;;;;34.97;19.45;;;6.70;99.90;;;;;;4996387;28;20039;-64
2023/10/18 02:23:11;;;;;;;38.47;19.85;;;6.70;99.90;;;;;;4988072;28;20042;-64
2023/10/18 02:25:46;;;;;;;36.42;20.05;;;6.70;99.90;;;;;;5001361;28;20396;-65
2023/10/18 02:28:25;;;;;;;37.40;19.85;;;6.70;99.90;;;;;;5003955;28;20037;-64
2023/10/18 02:30:57;;;;;;;34.85;20.23;;;6.70;99.90;;;;;;5000743;28;20496;-65
2023/10/18 02:33:26;;;;;;;36.08;19.48;;;6.70;99.90;;;;;;4992419;28;20038;-65
2023/10/18 02:35:57;;;;;;;38.95;20.35;;;6.70;99.90;;;;;;4977101;28;20358;-64
2023/10/18 02:38:23;;;;;;;33.35;19.65;;;6.70;99.90;;;;;;4995245;28;20073;-64
2023/10/18 02:40:49;;;;;;;35.90;19.45;;;6.70;99.90;;;;;;4982643;28;20034;-65
2023/10/18 02:43:15;;;;;;;36.83;20.45;;;6.70;99.90;;;;;;5003267;28;20431;-65
2023/10/18 02:45:54;;;;;;;35.08;19.90;;;6.70;99.90;;;;;;4997952;28;20030;-65
2023/10/18 02:48:23;;;;;;;36.10;19.88;;;6.70;99.90;;;;;;5004377;28;20037;-65
2023/10/18 02:50:54;;;;;;;38.88;21.05;;;6.60;99.90;;;;;;4983948;28;20066;-64
2023/10/18 02:53:20;;;;;;;35.80;20.17;;;6.60;99.90;;;;;;4994866;28;20038;-65
2023/10/18 02:55:55;;;;;;;38.63;21.05;;;6.60;99.90;;;;;;4977979;28;20297;-65
2023/10/18 02:58:28;;;;;;;36.80;20.75;;;6.60;99.90;;;;;;4975728;28;20117;-64
2023/10/18 03:00:54;;;;;;;42.45;21.42;;;6.60;99.90;;;;;;4999485;28;20037;-65
2023/10/18 03:03:22;;;;;;;37.33;20.63;;;6.50;99.90;;;;;;4991490;28;20393;-65
2023/10/18 03:05:47;;;;;;;38.22;21.38;;;6.60;99.90;;;;;;5003279;28;20042;-65
2023/10/18 03:08:13;;;;;;;38.17;20.75;;;6.60;99.90;;;;;;4991653;28;20042;-65
2023/10/18 03:10:45;;;;;;;35.88;20.35;;;6.60;99.90;;;;;;4999406;28;20036;-65
2023/10/18 03:13:12;;;;;;;;;;;6.50;99.90;;;;;;4992595;28;20547;-64
2023/10/18 03:15:54;;;;;;;39.85;21.42;;;6.60;99.90;;;;;;4960310;28;20507;-65
2023/10/18 03:18:25;;;;;;;38.33;21.20;;;6.50;99.90;;;;;;4967130;28;20057;-65
2023/10/18 03:20:57;;;;;;;37.38;20.13;;;6.50;99.90;;;;;;4990799;28;20042;-65
2023/10/18 03:23:26;;;;;;;38.67;20.75;;;6.60;99.90;;;;;;4991896;28;20369;-65
2023/10/18 03:25:59;;;;;;;38.22;21.30;;;6.60;99.90;;;;;;4997130;28;20515;-65
2023/10/18 03:28:25;;;;;;;42.03;21.48;;;6.60;99.90;;;;;;4997914;28;20045;-65
2023/10/18 03:30:54;;;;;;;40.13;20.77;;;6.50;99.90;;;;;;5002228;28;20472;-65
2023/10/18 03:33:19;;;;;;;38.15;20.92;;;6.50;99.90;;;;;;4980003;28;20054;-64
2023/10/18 03:36:00;;;;;;;36.55;21.23;;;6.60;99.90;;;;;;4994005;28;20045;-65
2023/10/18 03:38:30;;;;;;;34.08;20.13;;;6.60;99.90;;;;;;5000050;28;20057;-65
2023/10/18 03:40:58;;;;;;;38.88;21.05;;;6.60;99.90;;;;;;4994941;28;20144;-65
2023/10/18 03:43:31;;;;;;;40.33;21.55;;;6.60;99.90;;;;;;4999651;28;20109;-64
2023/10/18 03:46:17;;;;;;;36.28;20.30;;;6.60;99.90;;;;;;4972647;28;20049;-65
2023/10/18 03:48:47;;;;;;;36.13;20.75;;;6.50;99.90;;;;;;4980717;28;20074;-65
2023/10/18 03:51:18;;;;;;;39.70;21.38;;;6.50;99.90;;;;;;4990618;28;20037;-65
2023/10/18 03:53:44;;;;;;;34.17;20.45;;;6.50;99.90;;;;;;4982398;28;20081;-66
2023/10/18 03:56:13;;;;;;;36.35;20.58;;;6.50;99.90;;;;;;4993682;28;20513;-64
2023/10/18 03:58:42;;;;;;;41.95;20.83;;;6.60;99.90;;;;;;5000867;28;20060;-66
2023/10/18 04:01:12;;;;;;;35.85;20.65;;;6.50;99.90;;;;;;4997405;28;20106;-65
2023/10/18 04:03:39;;;;;;;33.80;20.35;;;6.50;99.90;;;;;;4995280;28;20065;-66
2023/10/18 04:06:08;;;;;;;39.08;20.10;;;6.50;99.90;;;;;;4982834;28;20049;-66
2023/10/18 04:08:34;;;;;;;38.28;21.33;;;6.50;99.90;;;;;;4974745;28;20490;-67
2023/10/18 04:11:00;;;;;;;36.80;20.85;;;6.50;99.90;;;;;;4994138;28;20042;-66
2023/10/18 04:13:28;;;;;;;36.47;20.67;;;6.50;99.90;;;;;;4997024;28;20168;-66
2023/10/18 04:15:59;;;;;;;37.20;21.65;;;6.50;99.90;;;;;;4977009;28;20048;-66
2023/10/18 04:18:26;;;;;;;37.37;21.00;;;6.50;99.90;;;;;;4980776;28;20046;-66
2023/10/18 04:20:54;;;;;;;33.47;20.13;;;6.50;99.90;;;;;;4973363;28;20042;-66
2023/10/18 04:23:26;;;;;;;40.13;21.27;;;6.50;99.90;;;;;;4976503;28;20053;-67
2023/10/18 04:25:58;;;;;;;37.75;20.58;;;6.90;99.90;;;;;;4973757;28;20404;-66
2023/10/18 04:28:24;;;;;;;;;;;6.50;99.90;;;;;;4992343;28;20397;-66
2023/10/18 04:31:04;;;;;;;37.35;20.63;;;6.50;99.90;;;;;;4996509;28;19917;-66
2023/10/18 04:33:41;;;;;;;32.58;19.45;;;6.50;99.90;;;;;;4998763;28;20037;-66
2023/10/18 04:36:11;;;;;;;35.65;21.25;;;6.50;99.90;;;;;;4976032;28;20496;-66
2023/10/18 04:38:47;;;;;;;40.40;22.30;;;6.50;99.90;;;;;;4983238;28;20057;-66
2023/10/18 04:41:23;;;;;;;37.78;20.35;;;6.40;99.90;;;;;;4993600;28;20093;-66
2023/10/18 04:44:11;;;;;;;40.22;21.67;;;6.40;99.90;;;;;;4982499;28;20049;-66
2023/10/18 04:46:36;;;;;;;40.30;21.52;;;6.40;99.90;;;;;;4996847;28;20408;-66
2023/10/18 04:54:16;;;;;;;38.00;21.87;;;6.40;99.90;;;;;;4990181;28;20038;-66
2023/10/18 04:56:46;;;;;;;38.40;20.33;;;6.40;99.90;;;;;;4994940;28;20058;-65
2023/10/18 05:04:34;;;;;;;33.70;19.50;;;6.40;99.90;;;;;;4982907;28;20496;-66
2023/10/18 05:09:41;;;;;;;37.78;22.27;;;6.40;99.90;;;;;;4984675;28;20050;-66
2023/10/18 05:17:30;;;;;;;36.57;20.57;;;6.50;99.90;;;;;;4974705;28;20050;-66
2023/10/18 05:19:56;;;;;;;33.42;20.02;;;6.50;99.90;;;;;;4978725;28;20312;-66
2023/10/18 05:22:25;;;;;;;36.70;21.33;;;6.50;99.90;;;;;;4978356;28;20042;-67
2023/10/18 05:27:45;;;;;;;31.60;19.88;;;6.50;99.90;;;;;;4971667;28;20042;-66
2023/10/18 05:30:26;;;;;;;34.00;20.25;;;6.40;99.90;;;;;;4974990;28;20100;-66
2023/10/18 05:35:27;;;;;;;37.25;20.92;;;6.50;99.90;;;;;;4972604;28;20050;-66
2023/10/18 05:37:58;;;;;;;35.35;20.52;;;6.50;99.90;;;;;;4993629;28;20038;-66
2023/10/18 05:41:18;;;;;;;36.70;20.75;;;6.50;99.90;;;;;;4975062;28;20056;-67
2023/10/18 05:43:22;;;;;;;34.35;20.02;;;6.40;99.90;;;;;;4975028;28;20065;-67
2023/10/18 05:45:50;;;;;;;35.90;20.52;;;6.50;99.90;;;;;;5008839;28;20037;-66
2023/10/18 05:48:22;;;;;;;32.35;20.10;;;6.50;99.90;;;;;;4995005;28;20035;-66
2023/10/18 05:51:21;;;;;;;;;;;6.40;99.90;;;;;;4985664;28;20038;-66
2023/10/18 05:53:47;;;;;;;35.00;20.38;;;6.40;99.90;;;;;;4977787;28;19918;-65
2023/10/18 05:56:14;;;;;;;32.95;20.00;;;6.40;99.90;;;;;;5000530;28;20042;-67
2023/10/18 05:58:39;;;;;;;34.10;20.73;;;6.30;99.90;;;;;;4988092;28;20078;-65
2023/10/18 06:01:05;;;;;;;34.58;20.05;;;6.40;99.90;;;;;;4988124;28;20081;-66
2023/10/18 06:03:39;;;;;;;31.23;19.67;;;6.40;99.90;;;;;;4972273;28;20069;-66
2023/10/18 06:06:06;;;;;;;32.55;20.13;;;6.40;99.90;;;;;;4974435;28;20646;-67
2023/10/18 06:08:32;;;;;;;33.08;20.17;;;6.40;99.90;;;;;;4986171;28;20089;-66
2023/10/18 06:11:06;;;;;;;33.50;19.90;;;6.40;99.90;;;;;;4994008;28;20042;-66
2023/10/18 06:13:35;;;;;;;31.48;19.23;;;6.40;99.90;;;;;;4988371;28;20049;-66
2023/10/18 06:16:18;;;;;;;34.15;20.20;;;6.40;99.90;;;;;;4994985;28;20046;-66
2023/10/18 06:18:48;;;;;;;33.28;19.35;;;6.40;99.90;;;;;;4986862;28;20038;-66
2023/10/18 06:21:20;;;;;;;32.55;19.35;;;6.40;99.90;;;;;;4970019;28;20038;-65
2023/10/18 06:24:28;;;;;;;33.28;20.30;;;6.40;99.90;;;;;;4962374;28;20125;-66
2023/10/18 06:26:36;;;;;;;33.13;19.73;;;6.40;99.90;;;;;;4965443;28;20109;-65
2023/10/18 06:29:08;;;;;;;32.72;19.40;;;6.30;99.90;;;;;;4986643;28;20050;-66
2023/10/18 06:31:39;;;;;;;;;;;6.30;99.90;;;;;;4988192;28;20258;-67
2023/10/18 06:34:15;;;;;;;30.95;18.20;;;6.40;99.90;;;;;;4971507;28;19918;-67
2023/10/18 06:36:41;;;;;;;32.35;18.50;;;6.40;99.90;;;;;;4991097;28;20049;-68
2023/10/18 06:39:07;;;;;;;32.03;19.35;;;6.40;99.90;;;;;;4993637;28;20038;-67
2023/10/18 06:41:33;;;;;;;32.30;19.27;;;6.40;99.90;;;;;;4988358;28;20033;-64
2023/10/18 06:43:58;;;;;;;32.33;18.08;;;6.40;99.90;;;;;;4979121;28;20490;-67
2023/10/18 06:46:28;;;;;;;31.75;19.15;;;6.40;99.90;;;;;;4985516;28;20089;-65
2023/10/18 06:48:57;;;;;;;30.98;19.45;;;6.40;99.90;;;;;;4985891;28;20034;-65
2023/10/18 06:51:33;;;;;;;35.00;20.15;;;6.40;99.90;;;;;;4966751;28;20049;-65
2023/10/18 06:54:05;;;;;;;32.60;18.80;;;6.40;99.90;;;;;;5000507;28;20049;-67
2023/10/18 06:56:39;;;;;;;33.13;19.08;;;6.40;99.90;;;;;;4983221;28;20516;-66
2023/10/18 06:59:08;;;;;;;29.10;18.02;;;6.50;99.90;;;;;;4993910;28;20401;-65
2023/10/18 07:01:41;;;;;;;32.33;18.65;;;6.50;99.90;;;;;;4997834;28;20340;-65
2023/10/18 07:04:15;;;;;;;33.00;18.70;;;6.50;99.90;;;;;;4994011;28;20289;-65
2023/10/18 07:06:44;;;;;;;29.83;18.05;;;6.50;99.90;;;;;;4998524;28;20116;-67
2023/10/18 07:09:24;;;;;;;27.45;18.02;;;6.50;99.90;;;;;;4989717;28;20039;-66
2023/10/18 07:11:51;;;;;;;30.35;18.88;;;6.50;99.90;;;;;;4971932;28;20054;-65
2023/10/18 07:14:16;;;;;;;29.13;18.25;;;6.60;99.90;;;;;;4993718;28;20053;-66
2023/10/18 07:16:42;;;;;;;28.33;18.13;;;6.60;99.90;;;;;;4992703;28;20042;-66
2023/10/18 07:19:26;;;;;;;27.95;18.08;;;6.60;99.90;;;;;;4969085;28;20051;-66
2023/10/18 07:21:56;;;;;;;29.48;17.50;;;6.60;99.90;;;;;;4987795;28;20034;-67
2023/10/18 07:24:32;;;;;;;30.08;17.45;;;6.60;99.90;;;;;;4987134;28;20035;-65
2023/10/18 07:26:59;;;;;;;27.73;17.30;;;6.70;99.90;;;;;;4981794;28;20125;-66
2023/10/18 07:29:27;;;;;;;30.17;17.40;;;6.70;99.90;;;;;;4993273;28;20096;-65
2023/10/18 07:31:53;;;;;;;27.63;17.35;;;6.80;99.90;;;;;;4995874;28;20081;-67
2023/10/18 07:34:28;;;;;;;26.55;17.17;;;6.80;99.90;;;;;;4967982;28;20052;-67
2023/10/18 07:36:54;;;;;;;28.25;16.17;;;6.80;99.90;;;;;;4979435;28;20046;-67
2023/10/18 07:39:24;;;;;;;27.45;16.95;;;6.80;99.90;;;;;;4978455;28;20407;-66
2023/10/18 07:41:54;;;;;;;27.63;16.98;;;6.80;99.90;;;;;;4992377;28;20034;-66
2023/10/18 07:44:20;;;;;;;29.08;17.25;;;6.90;99.90;;;;;;4998712;28;20366;-67
2023/10/18 07:46:46;;;;;;;24.45;16.33;;;6.90;99.90;;;;;;5003405;28;20034;-67
2023/10/18 07:49:14;;;;;;;27.40;15.63;;;6.90;99.90;;;;;;4985202;28;20034;-65
2023/10/18 07:51:55;;;;;;;27.55;15.77;;;7.00;99.90;;;;;;4981122;28;20190;-65
2023/10/18 07:54:22;;;;;;;25.65;16.38;;;7.00;99.90;;;;;;4981821;28;20038;-65
2023/10/18 07:56:54;;;;;;;28.35;16.00;;;7.00;99.90;;;;;;4992847;28;20041;-65
2023/10/18 08:02:05;;;;;;;26.95;15.45;;;7.10;99.90;;;;;;4989364;28;20093;-66
2023/10/18 08:04:33;;;;;;;24.70;15.82;;;7.10;99.90;;;;;;4985798;28;20039;-67
2023/10/18 08:07:00;;;;;;;25.33;15.52;;;7.20;99.90;;;;;;4993594;28;20044;-66
2023/10/18 08:09:30;;;;;;;30.42;15.57;;;7.20;99.90;;;;;;4981330;28;20053;-66
2023/10/18 08:11:56;;;;;;;23.30;15.05;;;7.20;99.90;;;;;;4976651;28;20089;-67
2023/10/18 08:14:24;;;;;;;22.52;15.30;;;7.20;99.90;;;;;;4997702;28;20524;-67
2023/10/18 08:16:56;;;;;;;26.05;15.60;;;7.30;99.90;;;;;;5002984;28;20037;-67
2023/10/18 08:19:25;;;;;;;23.15;14.23;;;7.30;99.90;;;;;;4987767;28;20041;-66
2023/10/18 08:24:35;;;;;;;26.38;15.35;;;7.40;99.90;;;;;;4975779;28;20046;-66
2023/10/18 08:27:10;;;;;;;23.75;14.93;;;7.40;99.90;;;;;;4997647;28;20523;-66
2023/10/18 08:29:37;;;;;;;24.85;14.82;;;7.40;99.90;;;;;;4987156;28;20058;-66
2023/10/18 08:32:14;;;;;;;23.08;14.85;;;7.50;99.90;;;;;;4990870;28;20038;-66
2023/10/18 08:34:44;;;;;;;21.70;13.80;;;7.50;99.90;;;;;;4981705;28;20042;-67
2023/10/18 08:37:15;;;;;;;25.50;16.80;;;7.60;99.90;;;;;;4993074;28;20038;-66
2023/10/18 08:39:52;;;;;;;26.48;16.65;;;7.60;99.90;;;;;;4997559;28;20506;-67
2023/10/18 08:42:21;;;;;;;23.23;15.32;;;7.60;99.90;;;;;;4992399;28;20030;-66
2023/10/18 08:44:55;;;;;;;24.85;14.70;;;7.70;99.90;;;;;;4996580;28;20416;-67
2023/10/18 08:47:26;;;;;;;21.27;14.52;;;7.70;99.90;;;;;;4989416;28;20558;-67
2023/10/18 08:49:55;;;;;;;21.98;14.30;;;7.80;99.90;;;;;;4990554;28;20404;-66
2023/10/18 08:52:24;;;;;;;19.88;13.98;;;7.80;99.90;;;;;;4993380;28;20038;-67
2023/10/18 08:54:51;;;;;;;31.80;22.15;;;7.50;99.90;;;;;;5000116;28;20066;-66
2023/10/18 08:57:34;;;;;;;26.50;17.65;;;7.90;99.90;;;;;;4986145;28;20045;-67
2023/10/18 09:02:46;;;;;;;38.33;27.45;;;8.00;99.90;;;;;;4982812;28;20042;-67
2023/10/18 09:05:13;;;;;;;27.02;18.88;;;8.10;99.90;;;;;;5001668;28;20481;-65
2023/10/18 09:07:43;;;;;;;22.40;14.77;;;8.10;99.90;;;;;;4991669;28;20439;-66
2023/10/18 09:10:13;;;;;;;20.83;14.27;;;8.10;99.90;;;;;;5004857;28;20042;-66
2023/10/18 09:15:28;;;;;;;23.05;16.50;;;8.20;99.90;;;;;;4998582;28;20484;-67
2023/10/18 09:18:04;;;;;;;20.75;13.68;;;8.30;99.90;;;;;;4996494;28;20034;-66
2023/10/18 09:20:31;;;;;;;19.13;11.95;;;8.30;99.90;;;;;;4975141;28;20105;-66
2023/10/18 09:23:03;;;;;;;20.13;12.00;;;8.40;99.90;;;;;;4990917;28;20033;-67
2023/10/18 09:25:47;;;;;;;18.13;11.90;;;8.40;99.90;;;;;;4982967;28;20485;-66
2023/10/18 09:28:13;;;;;;;17.85;12.10;;;8.50;99.90;;;;;;4995658;28;20031;-65
2023/10/18 09:30:39;;;;;;;19.10;12.35;;;8.50;99.90;;;;;;4972060;28;20043;-67
2023/10/18 09:33:05;;;;;;;21.55;13.48;;;8.50;99.90;;;;;;4969812;28;20038;-66
2023/10/18 09:35:31;;;;;;;20.40;11.85;;;8.60;99.90;;;;;;4992265;28;20034;-67
2023/10/18 09:38:09;;;;;;;17.92;11.60;;;8.60;99.90;;;;;;4980990;28;20029;-67
2023/10/18 09:40:38;;;;;;;18.70;11.73;;;8.70;99.90;;;;;;4987706;28;20042;-65
2023/10/18 09:43:04;;;;;;;17.42;11.82;;;8.80;99.90;;;;;;4998747;28;20037;-65
2023/10/18 09:45:29;;;;;;;18.15;11.38;;;8.80;99.90;;;;;;4991976;28;20504;-68
2023/10/18 09:47:59;;;;;;;16.65;10.98;;;8.80;99.90;;;;;;4975186;28;20415;-66
2023/10/18 09:50:31;;;;;;;19.17;11.48;;;8.90;99.90;;;;;;4986283;28;20054;-67
2023/10/18 09:52:57;;;;;;;16.65;11.57;;;8.90;99.90;;;;;;4968949;28;20046;-67
2023/10/18 09:55:26;;;;;;;16.63;11.18;;;8.90;99.90;;;;;;4986383;28;20066;-66
2023/10/18 09:58:14;;;;;;;16.30;11.02;;;9.00;99.90;;;;;;4978251;28;20110;-67
2023/10/18 10:00:42;;;;;;;20.25;11.55;;;9.10;99.90;;;;;;4996715;28;20049;-66
2023/10/18 10:03:15;;;;;;;16.67;10.75;;;9.10;99.90;;;;;;4996051;28;20045;-67
2023/10/18 10:05:41;;;;;;;17.75;11.18;;;9.10;99.90;;;;;;4978020;28;20416;-66
2023/10/18 10:08:08;;;;;;;15.90;11.55;;;9.20;99.90;;;;;;4973301;28;20482;-66
2023/10/18 10:10:46;;;;;;;17.15;10.25;;;9.20;99.90;;;;;;4978887;28;20548;-66
2023/10/18 10:13:18;;;;;;;18.38;10.93;;;9.30;99.90;;;;;;4967089;28;20069;-67
2023/10/18 10:15:47;;;;;;;15.60;10.07;;;9.30;99.90;;;;;;4968879;28;20042;-66
2023/10/18 10:18:13;;;;;;;16.92;10.68;;;9.40;99.90;;;;;;4962983;28;20045;-66
2023/10/18 10:20:40;;;;;;;24.48;16.80;;;9.40;99.90;;;;;;4984406;28;20046;-66
2023/10/18 10:23:13;;;;;;;18.20;14.20;;;9.50;99.90;;;;;;4982235;28;20041;-67
2023/10/18 10:25:38;;;;;;;;;;;9.50;99.90;;;;;;4990608;28;20034;-68
2023/10/18 10:28:53;;;;;;;17.15;10.98;;;9.50;99.90;;;;;;4982772;28;20452;-66
2023/10/18 10:30:58;;;;;;;14.93;10.07;;;9.60;99.90;;;;;;4967539;28;20043;-66
2023/10/18 10:33:25;;;;;;;15.80;9.95;;;9.70;99.90;;;;;;4992248;28;20042;-65
2023/10/18 10:35:51;;;;;;;14.93;10.23;;;9.80;99.90;;;;;;4993710;28;20061;-66
2023/10/18 10:38:19;;;;;;;15.32;10.85;;;9.90;99.90;;;;;;4991148;28;20116;-66
2023/10/18 10:41:04;;;;;;;14.05;9.82;;;9.90;99.90;;;;;;4974226;28;20084;-67
2023/10/18 10:44:11;;;;;;;14.15;9.93;;;10.00;99.90;;;;;;4969351;28;20034;-67
2023/10/18 10:46:40;;;;;;;16.20;10.00;;;10.10;99.90;;;;;;4971533;28;20081;-68
2023/10/18 10:49:47;;;;;;;18.45;11.02;;;10.20;99.90;;;;;;4994623;28;20042;-67
2023/10/18 10:52:18;;;;;;;17.10;10.05;;;10.30;99.90;;;;;;4976677;28;20041;-67
2023/10/18 10:54:47;;;;;;;13.82;10.13;;;10.30;99.90;;;;;;4980798;28;20089;-67
2023/10/18 10:57:15;;;;;;;15.82;10.65;;;10.30;99.90;;;;;;4970891;28;20058;-66
2023/10/18 10:59:51;;;;;;;14.02;9.75;;;10.40;99.90;;;;;;4964683;28;20080;-67
2023/10/18 11:02:24;;;;;;;15.93;9.98;;;10.50;99.90;;;;;;4992190;28;20030;-67
2023/10/18 11:04:50;;;;;;;13.52;9.88;;;10.50;99.90;;;;;;4996834;28;20081;-66
2023/10/18 11:07:22;;;;;;;12.25;8.75;;;10.60;99.90;;;;;;4983977;28;20043;-67
2023/10/18 11:09:48;;;;;;;;;;;10.60;99.90;;;;;;4970874;28;20096;-67
2023/10/18 11:12:14;;;;;;;14.73;9.63;;;10.60;99.90;;;;;;4967177;28;19918;-67
2023/10/18 11:14:43;;;;;;;13.68;9.65;;;10.70;99.90;;;;;;4979107;28;20089;-67
2023/10/18 11:19:58;;;;;;;12.48;9.35;;;10.70;99.90;;;;;;4976905;28;20042;-67
2023/10/18 11:22:24;;;;;;;14.18;9.38;;;10.70;99.90;;;;;;4988584;28;20110;-67
2023/10/18 11:24:51;;;;;;;13.38;9.35;;;10.70;99.90;;;;;;4980643;28;20477;-67
2023/10/18 11:27:22;;;;;;;12.93;9.95;;;10.80;99.90;;;;;;4977998;28;20045;-67
2023/10/18 11:29:52;;;;;;;14.02;9.57;;;11.00;99.90;;;;;;4968687;28;20300;-67
2023/10/18 11:32:18;;;;;;;13.43;9.13;;;10.80;99.90;;;;;;4989020;28;20463;-67
2023/10/18 11:34:46;;;;;;;14.02;8.88;;;10.90;99.90;;;;;;4987827;28;20049;-66
2023/10/18 11:37:34;;;;;;;13.68;9.80;;;11.00;99.90;;;;;;4990232;28;20046;-67
2023/10/18 11:40:14;;;;;;;15.02;9.32;;;11.00;99.90;;;;;;4995046;28;20392;-67
2023/10/18 11:43:05;;;;;;;13.05;9.27;;;11.10;99.90;;;;;;4994130;28;20488;-67
2023/10/18 11:45:31;;;;;;;14.82;9.63;;;11.30;99.90;;;;;;4982873;28;20578;-67
2023/10/18 11:47:59;;;;;;;15.20;10.88;;;11.30;99.90;;;;;;4981936;28;20030;-67
2023/10/18 11:50:50;;;;;;;16.33;12.02;;;11.40;99.90;;;;;;4976711;28;20065;-67
2023/10/18 11:53:20;;;;;;;14.32;10.82;;;11.40;99.90;;;;;;4984883;28;20074;-67
2023/10/18 11:55:58;;;;;;;14.40;9.52;;;11.50;99.90;;;;;;4982261;28;20101;-67
2023/10/18 11:58:26;;;;;;;12.98;9.32;;;11.60;99.90;;;;;;4967401;28;20085;-67
2023/10/18 12:00:57;;;;;;;12.15;9.32;;;11.60;99.90;;;;;;4983665;28;20057;-67
2023/10/18 12:03:23;;;;;;;12.45;8.77;;;11.60;99.90;;;;;;4964111;28;20049;-67
2023/10/18 12:05:50;;;;;;;13.38;9.00;;;11.60;99.90;;;;;;4982796;28;20037;-66
2023/10/18 12:08:17;;;;;;;13.55;9.70;;;11.70;99.90;;;;;;4991533;28;20396;-67
2023/10/18 12:10:43;;;;;;;12.23;8.75;;;11.70;99.90;;;;;;4982819;28;20394;-66
2023/10/18 12:13:16;;;;;;;13.40;9.02;;;11.90;99.90;;;;;;4970369;28;20105;-66
2023/10/18 12:15:42;;;;;;;15.07;9.57;;;11.90;99.90;;;;;;4968245;28;20069;-66
2023/10/18 12:18:14;;;;;;;11.75;8.77;;;12.00;99.90;;;;;;4990042;28;20036;-67
2023/10/18 12:20:43;;;;;;;11.75;8.50;;;12.10;99.90;;;;;;4978424;28;20053;-69
2023/10/18 12:23:10;;;;;;;11.45;7.82;;;12.20;99.90;;;;;;4988620;28;20046;-67
2023/10/18 12:25:42;;;;;;;14.30;8.52;;;12.30;99.90;;;;;;4986576;28;20093;-69
2023/10/18 12:28:27;;;;;;;12.35;7.88;;;12.30;99.90;;;;;;4971209;28;20082;-69
2023/10/18 12:30:55;;;;;;;11.80;7.57;;;12.40;99.90;;;;;;4991327;28;20380;-67
2023/10/18 12:33:27;;;;;;;12.90;7.97;;;12.50;99.90;;;;;;4992535;28;20572;-67
2023/10/18 12:35:56;;;;;;;;;;;12.50;99.90;;;;;;4977933;28;20030;-67
2023/10/18 12:38:36;;;;;;;12.32;7.85;;;12.50;99.90;;;;;;4996978;28;19918;-67
2023/10/18 12:41:18;;;;;;;10.77;7.45;;;12.50;99.90;;;;;;4968291;28;20070;-67
2023/10/18 12:43:47;;;;;;;10.90;7.63;;;12.50;99.90;;;;;;4954023;28;20038;-67
2023/10/18 12:46:17;;;;;;;10.90;7.78;;;12.50;99.90;;;;;;4987462;28;20042;-67
2023/10/18 12:48:43;;;;;;;12.88;8.05;;;12.50;99.90;;;;;;4984083;28;20038;-68
2023/10/18 12:51:12;;;;;;;12.25;8.05;;;12.60;99.90;;;;;;4988599;28;20054;-67
2023/10/18 12:53:43;;;;;;;11.65;7.70;;;12.60;99.90;;;;;;4982442;28;20053;-67
2023/10/18 12:56:19;;;;;;;10.48;7.47;;;12.60;99.90;;;;;;4990220;28;20046;-67
2023/10/18 12:58:48;;;;;;;14.10;8.10;;;12.60;99.90;;;;;;4986006;28;20551;-67
2023/10/18 13:01:22;;;;;;;12.85;7.53;;;12.60;99.90;;;;;;4972659;28;20451;-67
2023/10/18 13:03:56;;;;;;;11.77;7.78;;;12.60;99.90;;;;;;4975111;28;20536;-67
2023/10/18 13:06:30;;;;;;;14.35;7.65;;;12.60;99.90;;;;;;4985373;28;20035;-67
2023/10/18 13:09:15;;;;;;;14.85;8.05;;;12.60;99.90;;;;;;4962361;28;20137;-67
2023/10/18 13:14:23;;;;;;;11.93;7.35;;;12.60;99.90;;;;;;4986554;28;20501;-66
2023/10/18 13:16:51;;;;;;;13.45;7.55;;;12.60;99.90;;;;;;4992281;28;20038;-68
2023/10/18 13:19:19;;;;;;;9.95;7.20;;;12.60;99.90;;;;;;4982660;28;20047;-66
2023/10/18 13:21:45;;;;;;;11.05;7.72;;;12.60;99.90;;;;;;4952005;28;20126;-66
2023/10/18 13:24:17;;;;;;;12.32;7.15;;;12.60;99.90;;;;;;4987885;28;20325;-66
2023/10/18 13:26:46;;;;;;;11.23;7.30;;;12.70;99.90;;;;;;4971720;28;20052;-66
2023/10/18 13:29:29;;;;;;;10.65;7.57;;;12.70;99.90;;;;;;4988387;28;20031;-66
2023/10/18 13:31:58;;;;;;;10.55;7.30;;;12.70;99.90;;;;;;4980887;28;20113;-68
2023/10/18 13:34:32;;;;;;;10.98;7.38;;;12.70;99.90;;;;;;4998555;28;20495;-66
2023/10/18 13:36:59;;;;;;;12.15;7.13;;;12.70;99.90;;;;;;4990935;28;20039;-66
2023/10/18 13:39:27;;;;;;;11.57;7.40;;;12.70;99.90;;;;;;4979712;28;20529;-67